Time;durP1;ratioP1;P1;durP2;ratioP2;P2;SDS_P1;SDS_P2;PMS_P1;PMS_P2;Temp;Humidity;BMP_temperature;BMP_pressure;BME280_temperature;BME280_humidity;BME280_pressure;Samples;Min_cycle;Max_cycle;Signal;HPM_P1;HPM_P2
2021/05/18 00:01:05;;;;;;;12.20;6.43;;;;;;;;;;5057384;28;20445;-53
2021/05/18 00:03:32;;;;;;;13.17;6.30;;;;;;;;;;5091146;28;20500;-57
2021/05/18 00:05:59;;;;;;;11.40;6.63;;;;;;;;;;5080708;28;20467;-56
2021/05/18 00:08:28;;;;;;;10.20;6.50;;;;;;;;;;5092911;28;20485;-57
2021/05/18 00:16:49;;;;;;;13.83;5.80;;;;;;;;;;5126595;28;20477;-61
2021/05/18 00:19:16;;;;;;;17.87;7.07;;;;;;;;;;5136613;28;20470;-60
2021/05/18 00:21:43;;;;;;;11.33;6.10;;;;;;;;;;5137004;28;20497;-57
2021/05/18 00:24:10;;;;;;;12.10;6.33;;;;;;;;;;5136999;28;20438;-60
2021/05/18 00:26:43;;;;;;;9.97;5.70;;;;;;;;;;5136531;28;20453;-65
2021/05/18 00:29:10;;;;;;;13.83;6.00;;;;;;;;;;5136591;28;20460;-53
2021/05/18 00:31:37;;;;;;;12.33;6.20;;;;;;;;;;5136258;28;20501;-60
2021/05/18 00:34:06;;;;;;;9.63;6.17;;;;;;;;;;5136274;28;20477;-56
2021/05/18 00:36:32;;;;;;;8.97;6.27;;;;;;;;;;5136249;28;20450;-59
2021/05/18 00:38:59;;;;;;;15.20;7.10;;;;;;;;;;5136094;28;20470;-59
2021/05/18 00:41:26;;;;;;;12.30;6.43;;;;;;;;;;5140384;28;20434;-58
2021/05/18 00:43:53;;;;;;;14.23;7.70;;;;;;;;;;5140010;28;20470;-52
2021/05/18 00:46:34;;;;;;;17.20;5.97;;;;;;;;;;5140217;28;20462;-57
2021/05/18 00:49:01;;;;;;;10.67;5.93;;;;;;;;;;5139636;28;20457;-62
2021/05/18 00:51:30;;;;;;;9.30;6.53;;;;;;;;;;5139895;28;20455;-50
2021/05/18 00:59:50;;;;;;;11.53;7.20;;;;;;;;;;5135683;28;20464;-53
2021/05/18 01:02:17;;;;;;;10.43;7.20;;;;;;;;;;5121437;28;20431;-51
2021/05/18 01:04:44;;;;;;;14.07;7.03;;;;;;;;;;5133794;28;20458;-59
2021/05/18 01:07:12;;;;;;;11.90;6.73;;;;;;;;;;5139366;28;20457;-56
2021/05/18 01:09:39;;;;;;;12.40;7.03;;;;;;;;;;5137621;28;20509;-58
2021/05/18 01:12:07;;;;;;;13.20;7.90;;;;;;;;;;5139088;28;20441;-59
2021/05/18 01:14:33;;;;;;;14.07;7.80;;;;;;;;;;5139724;28;20472;-60
2021/05/18 01:17:00;;;;;;;11.40;8.47;;;;;;;;;;5139510;28;20479;-59
2021/05/18 01:19:35;;;;;;;11.67;7.67;;;;;;;;;;5139672;28;20553;-53
2021/05/18 01:22:03;;;;;;;10.07;7.90;;;;;;;;;;5139970;28;20480;-59
2021/05/18 01:24:30;;;;;;;13.23;8.23;;;;;;;;;;5139742;28;20537;-57
2021/05/18 01:26:58;;;;;;;11.07;8.10;;;;;;;;;;5139313;28;20429;-58
2021/05/18 01:29:25;;;;;;;8.50;7.00;;;;;;;;;;5137826;28;20493;-58
2021/05/18 01:31:52;;;;;;;13.67;8.27;;;;;;;;;;5139982;28;20446;-57
2021/05/18 01:34:19;;;;;;;9.03;6.87;;;;;;;;;;5139761;28;20434;-58
2021/05/18 01:36:46;;;;;;;9.47;6.13;;;;;;;;;;5139258;28;20453;-57
2021/05/18 01:39:41;;;;;;;11.00;7.20;;;;;;;;;;5139222;28;20474;-50
2021/05/18 01:45:07;;;;;;;9.50;5.90;;;;;;;;;;5130387;28;20461;-58
2021/05/18 01:47:34;;;;;;;6.93;5.37;;;;;;;;;;5118733;28;20459;-54
2021/05/18 01:50:01;;;;;;;9.33;6.00;;;;;;;;;;5118382;28;20451;-55
2021/05/18 01:52:45;;;;;;;9.67;6.50;;;;;;;;;;5118655;28;20443;-58
2021/05/18 01:55:16;;;;;;;8.63;5.60;;;;;;;;;;5118726;28;20459;-52
2021/05/18 01:57:44;;;;;;;9.27;5.17;;;;;;;;;;5118539;28;20589;-49
2021/05/18 02:00:18;;;;;;;8.20;4.30;;;;;;;;;;5118323;28;20447;-59
2021/05/18 02:02:45;;;;;;;15.10;6.43;;;;;;;;;;5117956;28;20458;-59
2021/05/18 02:05:13;;;;;;;11.20;5.13;;;;;;;;;;5118866;28;20447;-61
2021/05/18 02:07:41;;;;;;;11.10;5.70;;;;;;;;;;5118327;28;20455;-57
2021/05/18 02:10:09;;;;;;;12.27;4.37;;;;;;;;;;5119327;28;20435;-52
2021/05/18 02:12:55;;;;;;;9.70;4.90;;;;;;;;;;5118384;28;20442;-57
2021/05/18 02:15:33;;;;;;;7.70;4.90;;;;;;;;;;5139331;28;20453;-55
2021/05/18 02:18:14;;;;;;;8.03;4.70;;;;;;;;;;5138633;28;20450;-60
2021/05/18 02:20:46;;;;;;;9.50;5.00;;;;;;;;;;5138977;28;20446;-57
2021/05/18 02:26:16;;;;;;;11.33;6.33;;;;;;;;;;5138925;28;20433;-58
2021/05/18 02:28:43;;;;;;;11.37;5.50;;;;;;;;;;5138318;28;20473;-56
2021/05/18 02:31:28;;;;;;;15.27;6.30;;;;;;;;;;5138979;28;20686;-58
2021/05/18 02:33:56;;;;;;;9.43;5.63;;;;;;;;;;5138662;28;20449;-50
2021/05/18 02:36:24;;;;;;;13.20;5.70;;;;;;;;;;5137913;28;20486;-55
2021/05/18 02:38:56;;;;;;;10.87;5.37;;;;;;;;;;5138541;28;20474;-53
2021/05/18 02:41:23;;;;;;;9.30;5.47;;;;;;;;;;5138935;28;20442;-54
2021/05/18 02:43:53;;;;;;;11.43;5.90;;;;;;;;;;5138742;28;20461;-56
2021/05/18 02:49:25;;;;;;;11.60;5.97;;;;;;;;;;5138163;28;20633;-56
2021/05/18 02:52:05;;;;;;;7.27;4.10;;;;;;;;;;5137292;28;20427;-55
2021/05/18 02:54:32;;;;;;;10.07;5.17;;;;;;;;;;5118183;28;20486;-53
2021/05/18 02:57:00;;;;;;;8.33;4.77;;;;;;;;;;5117248;28;20511;-52
2021/05/18 02:59:29;;;;;;;9.20;4.90;;;;;;;;;;5117260;28;20487;-55
2021/05/18 03:01:58;;;;;;;9.57;4.57;;;;;;;;;;5116063;28;20444;-58
2021/05/18 03:04:26;;;;;;;12.43;4.47;;;;;;;;;;5133289;28;20570;-58
2021/05/18 03:07:12;;;;;;;9.97;4.83;;;;;;;;;;5136785;28;20442;-53
2021/05/18 03:09:39;;;;;;;10.93;5.50;;;;;;;;;;5138115;28;20442;-54
2021/05/18 03:12:06;;;;;;;11.80;4.67;;;;;;;;;;5137431;28;20441;-48
2021/05/18 03:14:38;;;;;;;11.50;4.33;;;;;;;;;;5137255;28;20438;-58
2021/05/18 03:17:05;;;;;;;14.60;5.17;;;;;;;;;;5137266;28;20454;-60
2021/05/18 03:19:33;;;;;;;11.47;4.27;;;;;;;;;;5138598;28;20474;-52
2021/05/18 03:22:04;;;;;;;8.53;4.07;;;;;;;;;;5138082;28;20438;-61
2021/05/18 03:24:30;;;;;;;16.40;5.63;;;;;;;;;;5135304;28;20481;-58
2021/05/18 03:26:57;;;;;;;8.33;4.47;;;;;;;;;;5137262;28;20462;-62
2021/05/18 03:29:26;;;;;;;12.60;4.47;;;;;;;;;;5123548;28;20451;-57
2021/05/18 03:34:50;;;;;;;18.13;5.00;;;;;;;;;;5116821;28;20438;-55
2021/05/18 03:37:19;;;;;;;13.37;5.37;;;;;;;;;;5115724;28;20455;-58
2021/05/18 03:39:48;;;;;;;12.07;4.50;;;;;;;;;;5116113;28;20475;-60
2021/05/18 03:42:35;;;;;;;8.60;3.90;;;;;;;;;;5116627;28;20455;-53
2021/05/18 03:45:09;;;;;;;8.17;3.70;;;;;;;;;;5134629;28;20494;-57
2021/05/18 03:53:27;;;;;;;21.13;5.20;;;;;;;;;;5086474;28;20486;-59
2021/05/18 04:04:15;;;;;;;11.63;4.40;;;;;;;;;;5095972;28;20459;-54
2021/05/18 04:18:03;;;;;;;10.93;3.40;;;;;;;;;;5082583;28;20430;-58
2021/05/18 04:20:47;;;;;;;7.07;4.30;;;;;;;;;;5095827;28;20433;-59
2021/05/18 04:26:31;;;;;;;13.23;3.53;;;;;;;;;;5094620;28;20450;-55
2021/05/18 04:40:52;;;;;;;8.00;3.23;;;;;;;;;;5080445;28;20503;-55
2021/05/18 04:51:36;;;;;;;7.93;3.10;;;;;;;;;;5093272;28;20464;-57
2021/05/18 04:54:16;;;;;;;8.97;3.93;;;;;;;;;;5094529;28;20451;-53
2021/05/18 04:59:39;;;;;;;7.20;3.30;;;;;;;;;;5095336;28;20463;-60
2021/05/18 05:02:48;;;;;;;10.57;3.50;;;;;;;;;;5094678;28;20456;-57
2021/05/18 05:08:21;;;;;;;11.20;3.30;;;;;;;;;;5089519;28;20431;-61
2021/05/18 05:14:14;;;;;;;6.97;3.90;;;;;;;;;;5093177;28;20435;-56
2021/05/18 05:16:40;;;;;;;6.60;2.47;;;;;;;;;;5094170;28;20470;-58
2021/05/18 05:19:14;;;;;;;6.63;3.37;;;;;;;;;;5093536;28;20673;-55
2021/05/18 05:21:41;;;;;;;17.33;3.87;;;;;;;;;;5093942;28;20471;-57
2021/05/18 05:24:09;;;;;;;11.37;5.20;;;;;;;;;;5093781;28;20429;-59
2021/05/18 05:26:44;;;;;;;8.30;3.37;;;;;;;;;;5096607;28;20548;-55
2021/05/18 05:29:27;;;;;;;6.90;2.90;;;;;;;;;;5096432;28;20514;-61
2021/05/18 05:31:56;;;;;;;9.80;2.83;;;;;;;;;;5076917;28;20453;-51
2021/05/18 05:34:23;;;;;;;8.67;3.37;;;;;;;;;;5094511;28;20484;-56
2021/05/18 05:36:50;;;;;;;8.27;2.93;;;;;;;;;;5097413;28;20460;-62
2021/05/18 05:39:30;;;;;;;10.90;3.00;;;;;;;;;;5096970;28;20502;-58
2021/05/18 05:41:57;;;;;;;6.67;2.40;;;;;;;;;;5093700;28;20459;-59
2021/05/18 05:44:26;;;;;;;8.67;2.30;;;;;;;;;;5075986;28;20437;-59
2021/05/18 05:46:55;;;;;;;6.60;2.43;;;;;;;;;;5084507;28;20460;-58
2021/05/18 05:49:25;;;;;;;8.20;3.60;;;;;;;;;;5135790;28;20457;-55
2021/05/18 05:51:52;;;;;;;10.07;4.20;;;;;;;;;;5128414;28;20439;-53
2021/05/18 05:54:22;;;;;;;7.30;2.93;;;;;;;;;;5116686;28;20514;-60
2021/05/18 05:56:48;;;;;;;11.97;3.90;;;;;;;;;;5122543;28;20520;-57
2021/05/18 05:59:18;;;;;;;6.27;2.87;;;;;;;;;;5129482;28;20490;-54
2021/05/18 06:01:48;;;;;;;5.70;2.87;;;;;;;;;;5127983;28;20435;-52
2021/05/18 06:04:15;;;;;;;9.47;2.50;;;;;;;;;;5124952;28;20465;-60
2021/05/18 06:06:42;;;;;;;6.27;3.20;;;;;;;;;;5119873;28;20478;-60
2021/05/18 06:09:16;;;;;;;10.00;3.17;;;;;;;;;;5131251;28;20463;-57
2021/05/18 06:11:52;;;;;;;11.23;3.97;;;;;;;;;;5139013;27;20504;-58
2021/05/18 06:14:32;;;;;;;11.30;2.83;;;;;;;;;;5143160;27;20596;-58
2021/05/18 06:34:23;;;;;;;4.17;2.67;;;;;;;;;;5094411;28;20432;-55
2021/05/18 06:37:38;;;;;;;6.50;3.27;;;;;;;;;;5087280;28;20488;-55
2021/05/18 06:43:35;;;;;;;6.90;3.20;;;;;;;;;;5095079;28;20470;-56
2021/05/18 06:46:18;;;;;;;7.43;3.47;;;;;;;;;;5094154;28;20484;-50
2021/05/18 06:48:48;;;;;;;7.70;4.47;;;;;;;;;;5094851;28;20643;-53
2021/05/18 06:51:15;;;;;;;6.63;3.90;;;;;;;;;;5090343;28;20544;-59
2021/05/18 06:53:42;;;;;;;8.17;4.80;;;;;;;;;;5109312;28;20452;-59
2021/05/18 06:56:09;;;;;;;11.17;4.17;;;;;;;;;;5094038;28;20490;-55
2021/05/18 07:01:29;;;;;;;7.07;4.20;;;;;;;;;;5061928;28;20748;-56
2021/05/18 07:04:10;;;;;;;12.60;5.23;;;;;;;;;;5088183;28;20508;-61
2021/05/18 07:06:46;;;;;;;8.57;4.00;;;;;;;;;;5074413;28;20484;-58
2021/05/18 07:09:14;;;;;;;11.77;6.63;;;;;;;;;;5096552;28;20446;-57
2021/05/18 07:11:42;;;;;;;9.20;5.63;;;;;;;;;;5093486;28;20444;-59
2021/05/18 07:14:10;;;;;;;11.57;5.20;;;;;;;;;;5093946;28;20459;-59
2021/05/18 07:16:42;;;;;;;12.53;5.60;;;;;;;;;;5089089;28;20441;-56
2021/05/18 07:19:09;;;;;;;8.30;4.70;;;;;;;;;;5095423;28;20488;-59
2021/05/18 07:21:36;;;;;;;11.37;6.03;;;;;;;;;;5085865;28;20449;-53
2021/05/18 07:24:08;;;;;;;6.37;4.37;;;;;;;;;;5110685;28;20694;-58
2021/05/18 07:26:52;;;;;;;9.43;5.93;;;;;;;;;;5093780;28;20466;-58
2021/05/18 07:29:20;;;;;;;10.50;5.83;;;;;;;;;;5094214;28;20448;-54
2021/05/18 07:31:47;;;;;;;9.43;6.20;;;;;;;;;;5082640;28;20464;-60
2021/05/18 07:34:15;;;;;;;9.10;5.37;;;;;;;;;;5073668;28;20554;-55
2021/05/18 07:36:56;;;;;;;12.67;6.33;;;;;;;;;;5083588;28;20497;-58
2021/05/18 07:39:26;;;;;;;11.23;6.73;;;;;;;;;;5092338;28;20476;-54
2021/05/18 07:41:58;;;;;;;14.47;7.10;;;;;;;;;;5094365;28;20456;-60
2021/05/18 07:44:54;;;;;;;12.27;6.97;;;;;;;;;;5094299;28;20490;-58
2021/05/18 07:47:23;;;;;;;11.60;7.83;;;;;;;;;;5089911;28;20499;-60
2021/05/18 07:49:53;;;;;;;17.47;7.33;;;;;;;;;;5093284;28;20432;-58
2021/05/18 08:06:27;;;;;;;11.20;6.10;;;;;;;;;;5094348;28;20420;-55
2021/05/18 08:09:03;;;;;;;10.93;6.10;;;;;;;;;;5094366;28;20452;-58
2021/05/18 08:11:29;;;;;;;8.73;6.80;;;;;;;;;;5093996;28;20463;-55
2021/05/18 08:13:58;;;;;;;11.80;7.20;;;;;;;;;;5093901;28;20522;-57
2021/05/18 08:19:58;;;;;;;18.57;7.90;;;;;;;;;;5092714;28;20513;-58
2021/05/18 10:37:35;;;;;;;8.20;5.60;;;;;;;;;;5071770;28;20476;-58
2021/05/18 10:40:21;;;;;;;9.93;6.70;;;;;;;;;;5079136;28;20488;-54
2021/05/18 10:43:12;;;;;;;10.37;5.03;;;;;;;;;;5073096;28;20508;-61
2021/05/18 10:46:12;;;;;;;7.83;4.90;;;;;;;;;;5040618;28;20466;-60
2021/05/18 10:49:07;;;;;;;8.23;5.20;;;;;;;;;;5054767;28;20453;-58
2021/05/18 10:52:02;;;;;;;7.33;4.17;;;;;;;;;;5072407;28;20457;-58
2021/05/18 10:54:39;;;;;;;13.17;3.87;;;;;;;;;;5039155;28;20617;-63
2021/05/18 10:57:15;;;;;;;6.73;3.90;;;;;;;;;;5074621;28;20471;-56
2021/05/18 10:59:44;;;;;;;9.43;4.17;;;;;;;;;;5074093;28;20485;-57
2021/05/18 11:02:13;;;;;;;8.20;4.27;;;;;;;;;;5062465;28;20441;-60
2021/05/18 11:04:46;;;;;;;7.30;4.23;;;;;;;;;;5075106;28;20478;-58
2021/05/18 11:07:17;;;;;;;4.80;4.00;;;;;;;;;;5072748;28;20488;-57
2021/05/18 11:09:45;;;;;;;6.70;4.00;;;;;;;;;;5073622;28;20635;-62
2021/05/18 11:12:13;;;;;;;6.73;5.20;;;;;;;;;;5073223;28;20441;-59
2021/05/18 11:14:48;;;;;;;6.33;4.30;;;;;;;;;;5074432;28;20456;-59
2021/05/18 11:17:23;;;;;;;8.20;5.07;;;;;;;;;;5074200;28;20509;-62
2021/05/18 11:20:20;;;;;;;5.43;4.80;;;;;;;;;;5073785;28;20487;-58
2021/05/18 11:25:37;;;;;;;8.20;4.30;;;;;;;;;;5073697;28;20547;-60
2021/05/18 11:28:07;;;;;;;7.23;4.20;;;;;;;;;;5074132;28;20441;-60
2021/05/18 11:30:34;;;;;;;6.17;4.63;;;;;;;;;;5070856;28;20552;-57
2021/05/18 11:33:10;;;;;;;6.33;3.67;;;;;;;;;;5073945;28;20969;-61
2021/05/18 11:35:37;;;;;;;9.43;3.13;;;;;;;;;;5074658;28;20457;-58
2021/05/18 11:38:11;;;;;;;7.17;2.37;;;;;;;;;;5073760;28;20456;-62
2021/05/18 11:41:06;;;;;;;5.43;2.30;;;;;;;;;;5073712;28;20495;-56
2021/05/18 11:43:35;;;;;;;4.20;2.20;;;;;;;;;;5074149;28;20458;-58
2021/05/18 11:46:10;;;;;;;5.70;3.03;;;;;;;;;;5071857;28;20464;-59
2021/05/18 11:48:39;;;;;;;7.57;3.37;;;;;;;;;;5053588;28;20465;-59
2021/05/18 11:51:09;;;;;;;17.93;2.90;;;;;;;;;;5054873;28;20468;-57
2021/05/18 11:54:08;;;;;;;4.70;2.23;;;;;;;;;;5073479;28;20546;-58
2021/05/18 11:56:36;;;;;;;6.50;2.30;;;;;;;;;;5073844;28;20444;-55
2021/05/18 11:59:06;;;;;;;7.43;2.80;;;;;;;;;;5074051;28;20483;-61
2021/05/18 12:01:35;;;;;;;4.43;2.43;;;;;;;;;;5074069;28;20467;-58
2021/05/18 12:04:02;;;;;;;4.80;2.57;;;;;;;;;;5074312;28;20461;-57
2021/05/18 12:06:29;;;;;;;5.00;2.30;;;;;;;;;;5074233;28;20441;-60
2021/05/18 12:09:05;;;;;;;4.13;2.53;;;;;;;;;;5056017;28;20472;-62
2021/05/18 12:11:33;;;;;;;8.87;4.40;;;;;;;;;;5073549;28;20445;-59
2021/05/18 12:13:59;;;;;;;7.03;3.40;;;;;;;;;;5073585;28;20512;-57
2021/05/18 12:19:31;;;;;;;6.83;3.33;;;;;;;;;;5075299;28;20527;-61
2021/05/18 12:22:00;;;;;;;7.00;3.57;;;;;;;;;;5074409;28;20484;-62
2021/05/18 12:24:28;;;;;;;6.70;4.10;;;;;;;;;;5072586;28;20549;-58
2021/05/18 12:27:01;;;;;;;5.20;3.63;;;;;;;;;;5073926;28;20515;-57
2021/05/18 12:29:30;;;;;;;5.30;3.67;;;;;;;;;;5074721;28;20453;-60
2021/05/18 12:32:12;;;;;;;5.33;3.27;;;;;;;;;;5074506;28;20453;-58
2021/05/18 12:34:41;;;;;;;4.33;2.20;;;;;;;;;;5075457;28;20452;-63
2021/05/18 12:37:09;;;;;;;3.70;1.67;;;;;;;;;;5078245;28;20472;-59
2021/05/18 12:39:42;;;;;;;4.93;2.50;;;;;;;;;;5077596;28;20485;-56
2021/05/18 12:42:24;;;;;;;4.50;2.30;;;;;;;;;;5065099;28;20445;-63
2021/05/18 12:45:13;;;;;;;5.57;2.80;;;;;;;;;;5078960;28;21072;-61
2021/05/18 12:47:43;;;;;;;4.20;2.50;;;;;;;;;;5071178;28;20477;-56
2021/05/18 12:50:15;;;;;;;3.73;2.37;;;;;;;;;;5079143;28;20468;-62
2021/05/18 12:52:48;;;;;;;4.87;2.57;;;;;;;;;;5079123;28;20573;-58
2021/05/18 12:55:22;;;;;;;4.83;3.10;;;;;;;;;;5070778;28;20453;-56
2021/05/18 12:57:51;;;;;;;5.53;3.70;;;;;;;;;;5079118;28;20425;-57
2021/05/18 13:00:38;;;;;;;6.40;3.60;;;;;;;;;;5077488;28;20487;-57
2021/05/18 13:03:13;;;;;;;5.37;3.30;;;;;;;;;;5078900;28;20468;-65
2021/05/18 13:05:57;;;;;;;4.80;2.97;;;;;;;;;;5078975;28;20495;-58
2021/05/18 13:11:18;;;;;;;5.67;3.80;;;;;;;;;;5068602;28;20527;-61
2021/05/18 13:13:50;;;;;;;8.13;4.63;;;;;;;;;;5078683;28;20449;-60
2021/05/18 13:16:31;;;;;;;6.53;4.70;;;;;;;;;;5050012;28;20497;-54
2021/05/18 13:19:19;;;;;;;10.27;4.00;;;;;;;;;;5073271;28;20469;-62
2021/05/18 13:22:04;;;;;;;9.20;3.80;;;;;;;;;;5076727;28;20460;-60
2021/05/18 13:27:26;;;;;;;5.27;4.30;;;;;;;;;;5056153;28;20830;-58
2021/05/18 13:29:53;;;;;;;16.43;4.90;;;;;;;;;;5077685;28;20445;-59
2021/05/18 13:35:26;;;;;;;8.83;7.20;;;;;;;;;;5057364;28;20435;-55
2021/05/18 13:37:54;;;;;;;11.37;9.10;;;;;;;;;;5057821;28;21008;-61
2021/05/18 13:40:57;;;;;;;13.93;10.00;;;;;;;;;;5074399;28;20472;-61
2021/05/18 13:43:24;;;;;;;18.30;13.20;;;;;;;;;;5077542;28;20452;-58
2021/05/18 13:45:51;;;;;;;18.53;13.93;;;;;;;;;;5077957;28;20448;-52
2021/05/18 13:48:51;;;;;;;29.77;16.30;;;;;;;;;;5078974;28;20496;-52
2021/05/18 13:51:18;;;;;;;28.13;18.60;;;;;;;;;;5077110;28;20489;-54
2021/05/18 13:53:46;;;;;;;33.23;22.97;;;;;;;;;;5078770;28;20465;-52
2021/05/18 13:56:13;;;;;;;40.13;26.70;;;;;;;;;;5078405;28;20479;-59
2021/05/18 13:58:40;;;;;;;35.43;23.50;;;;;;;;;;5078163;28;20452;-60
2021/05/18 14:01:09;;;;;;;31.30;24.33;;;;;;;;;;5077786;28;20461;-50
2021/05/18 14:04:18;;;;;;;38.53;28.10;;;;;;;;;;5077551;28;20586;-56
2021/05/18 14:06:52;;;;;;;44.40;29.67;;;;;;;;;;5076872;28;20453;-55
2021/05/18 14:09:21;;;;;;;47.20;34.30;;;;;;;;;;5076415;28;20457;-60
2021/05/18 14:11:47;;;;;;;43.40;32.20;;;;;;;;;;5076792;28;20455;-52
2021/05/18 14:14:14;;;;;;;43.13;31.47;;;;;;;;;;5076595;28;20522;-60
2021/05/18 14:16:42;;;;;;;30.37;25.97;;;;;;;;;;5076569;28;20463;-61
2021/05/18 14:19:12;;;;;;;29.63;24.20;;;;;;;;;;5076797;28;20492;-57
2021/05/18 14:21:40;;;;;;;21.60;14.80;;;;;;;;;;5077167;28;20464;-62
2021/05/18 14:24:12;;;;;;;20.27;14.87;;;;;;;;;;5057093;28;20474;-60
2021/05/18 14:26:39;;;;;;;15.77;12.70;;;;;;;;;;5056205;28;20446;-53
2021/05/18 14:29:16;;;;;;;14.57;12.20;;;;;;;;;;5056185;28;20427;-56
2021/05/18 14:31:44;;;;;;;16.17;12.13;;;;;;;;;;5063043;28;20457;-59
2021/05/18 14:34:20;;;;;;;10.17;9.10;;;;;;;;;;5075463;28;20449;-55
2021/05/18 14:36:47;;;;;;;11.50;8.83;;;;;;;;;;5070079;28;20526;-60
2021/05/18 14:39:22;;;;;;;10.60;8.90;;;;;;;;;;5091269;28;20468;-58
2021/05/18 14:44:39;;;;;;;8.90;7.10;;;;;;;;;;5076345;28;20441;-55
2021/05/18 14:47:21;;;;;;;7.30;5.80;;;;;;;;;;5075414;28;20508;-62
2021/05/18 14:55:32;;;;;;;8.30;6.70;;;;;;;;;;5055891;28;20506;-51
2021/05/18 14:58:08;;;;;;;10.00;7.33;;;;;;;;;;5055445;28;20454;-55
2021/05/18 15:00:38;;;;;;;9.90;8.33;;;;;;;;;;5071929;28;20480;-53
2021/05/18 15:03:06;;;;;;;12.53;7.10;;;;;;;;;;5060585;28;20472;-56
2021/05/18 15:05:33;;;;;;;9.40;6.80;;;;;;;;;;5056276;28;20442;-62
2021/05/18 15:08:07;;;;;;;10.17;6.37;;;;;;;;;;5046047;28;20526;-56
2021/05/18 15:10:34;;;;;;;8.10;6.27;;;;;;;;;;5047386;28;20457;-61
2021/05/18 15:13:02;;;;;;;8.63;6.30;;;;;;;;;;5055937;28;20458;-58
2021/05/18 15:15:43;;;;;;;9.53;7.10;;;;;;;;;;5055673;28;20470;-61
2021/05/18 15:18:10;;;;;;;13.97;11.23;;;;;;;;;;5056957;28;20783;-58
2021/05/18 15:20:38;;;;;;;13.30;9.80;;;;;;;;;;5065379;28;20503;-62
2021/05/18 15:23:42;;;;;;;11.27;8.77;;;;;;;;;;5047648;28;20764;-59
2021/05/18 15:26:09;;;;;;;12.20;8.73;;;;;;;;;;5060726;28;20454;-60
2021/05/18 15:28:41;;;;;;;8.67;6.93;;;;;;;;;;5055551;28;20438;-57
2021/05/18 15:31:10;;;;;;;8.73;6.30;;;;;;;;;;5059394;28;20561;-62
2021/05/18 15:33:37;;;;;;;7.57;6.30;;;;;;;;;;5055734;28;20469;-56
2021/05/18 15:36:05;;;;;;;8.97;6.73;;;;;;;;;;5055226;28;20484;-58
2021/05/18 15:38:38;;;;;;;7.17;6.33;;;;;;;;;;5050906;28;20496;-58
2021/05/18 15:41:07;;;;;;;7.33;6.53;;;;;;;;;;5051327;28;20483;-61
2021/05/18 15:43:38;;;;;;;8.50;6.57;;;;;;;;;;5036434;28;20443;-56
2021/05/18 15:46:12;;;;;;;8.33;6.43;;;;;;;;;;5055476;28;20442;-60
2021/05/18 15:48:40;;;;;;;7.10;6.40;;;;;;;;;;5050509;28;20521;-54
2021/05/18 15:51:07;;;;;;;7.57;6.10;;;;;;;;;;5076270;28;20468;-59
2021/05/18 15:53:34;;;;;;;9.00;5.97;;;;;;;;;;5079339;28;20465;-57
2021/05/18 15:56:03;;;;;;;15.47;9.43;;;;;;;;;;5090733;28;20518;-55
2021/05/18 15:58:31;;;;;;;9.40;5.93;;;;;;;;;;5095374;28;20764;-61
2021/05/18 16:01:00;;;;;;;9.80;5.97;;;;;;;;;;5094924;28;20553;-56
2021/05/18 16:03:46;;;;;;;9.33;6.97;;;;;;;;;;5094466;28;20467;-58
2021/05/18 16:06:14;;;;;;;8.83;6.87;;;;;;;;;;5088056;28;20464;-61
2021/05/18 16:11:47;;;;;;;10.33;7.70;;;;;;;;;;5090901;28;20572;-60
2021/05/18 16:14:15;;;;;;;10.17;7.47;;;;;;;;;;5076725;28;20457;-54
2021/05/18 16:19:40;;;;;;;6.73;6.03;;;;;;;;;;5102651;28;20483;-56
2021/05/18 16:22:16;;;;;;;7.00;5.70;;;;;;;;;;5052047;28;20458;-55
2021/05/18 16:25:01;;;;;;;11.90;6.77;;;;;;;;;;5081701;28;20522;-55
2021/05/18 16:27:28;;;;;;;8.20;6.23;;;;;;;;;;5093126;28;20811;-62
2021/05/18 16:29:58;;;;;;;7.17;5.57;;;;;;;;;;5087282;28;20456;-59
2021/05/18 16:32:55;;;;;;;9.23;5.07;;;;;;;;;;5080328;28;20460;-55
2021/05/18 16:35:24;;;;;;;18.30;6.80;;;;;;;;;;5081427;28;20465;-59
2021/05/18 16:37:51;;;;;;;9.60;6.30;;;;;;;;;;5088205;28;20613;-58
2021/05/18 16:40:18;;;;;;;7.30;5.80;;;;;;;;;;5084538;28;20481;-62
2021/05/18 16:42:45;;;;;;;8.00;5.77;;;;;;;;;;5106690;28;20519;-53
2021/05/18 16:45:14;;;;;;;7.47;5.77;;;;;;;;;;5090857;28;20463;-61
2021/05/18 16:47:41;;;;;;;9.47;5.90;;;;;;;;;;5078588;28;20462;-57
2021/05/18 16:50:09;;;;;;;5.97;4.97;;;;;;;;;;5096080;28;20443;-58
2021/05/18 16:52:39;;;;;;;7.30;5.73;;;;;;;;;;5094930;28;20468;-56
2021/05/18 16:55:07;;;;;;;7.63;5.80;;;;;;;;;;5092727;28;20455;-62
2021/05/18 16:57:56;;;;;;;7.17;5.93;;;;;;;;;;5091407;28;20441;-59
2021/05/18 17:00:42;;;;;;;7.40;5.70;;;;;;;;;;5092752;28;20484;-59
2021/05/18 17:03:23;;;;;;;12.40;5.37;;;;;;;;;;5093857;28;20452;-56
2021/05/18 17:06:21;;;;;;;7.60;5.77;;;;;;;;;;5080834;28;20494;-58
2021/05/18 17:08:52;;;;;;;7.30;5.67;;;;;;;;;;5077011;28;20480;-57
2021/05/18 17:11:32;;;;;;;6.50;5.00;;;;;;;;;;5083520;28;20533;-58
2021/05/18 17:14:06;;;;;;;4.97;4.30;;;;;;;;;;5091700;28;20546;-54
2021/05/18 17:16:34;;;;;;;6.97;4.33;;;;;;;;;;5092834;28;20483;-58
2021/05/18 17:19:09;;;;;;;6.63;4.93;;;;;;;;;;5093054;28;20440;-52
2021/05/18 17:21:36;;;;;;;5.90;4.87;;;;;;;;;;5094325;28;20435;-59
2021/05/18 17:24:05;;;;;;;8.40;4.70;;;;;;;;;;5091847;28;20514;-64
2021/05/18 17:26:43;;;;;;;7.27;4.97;;;;;;;;;;5082557;28;20468;-54
2021/05/18 17:29:23;;;;;;;12.20;5.23;;;;;;;;;;5085778;28;20497;-62
2021/05/18 17:31:50;;;;;;;9.40;5.40;;;;;;;;;;5089678;28;20560;-57
2021/05/18 17:34:19;;;;;;;9.37;6.30;;;;;;;;;;5100851;28;20459;-57
2021/05/18 17:36:50;;;;;;;11.00;4.80;;;;;;;;;;5105352;28;20436;-61
2021/05/18 17:39:17;;;;;;;7.53;4.43;;;;;;;;;;5098067;28;20436;-62
2021/05/18 17:41:59;;;;;;;7.70;4.70;;;;;;;;;;5103949;28;20522;-63
2021/05/18 17:44:37;;;;;;;9.50;5.43;;;;;;;;;;5095924;28;20448;-57
2021/05/18 17:47:04;;;;;;;7.67;5.07;;;;;;;;;;5110770;28;20487;-57
2021/05/18 17:49:31;;;;;;;7.50;5.30;;;;;;;;;;5080931;28;20464;-61
2021/05/18 17:52:11;;;;;;;7.33;5.27;;;;;;;;;;5095610;28;20460;-61
2021/05/18 17:54:40;;;;;;;5.60;4.40;;;;;;;;;;5094704;28;20492;-57
2021/05/18 17:57:07;;;;;;;9.13;5.60;;;;;;;;;;5096119;28;20475;-60
2021/05/18 17:59:34;;;;;;;11.47;6.00;;;;;;;;;;5096615;28;20530;-62
2021/05/18 18:02:01;;;;;;;8.00;6.70;;;;;;;;;;5096860;28;20498;-61
2021/05/18 18:04:34;;;;;;;9.93;6.27;;;;;;;;;;5096093;28;20511;-60
2021/05/18 18:07:02;;;;;;;12.53;6.43;;;;;;;;;;5076035;28;20453;-60
2021/05/18 18:09:38;;;;;;;10.33;5.73;;;;;;;;;;5091752;28;20436;-57
2021/05/18 18:12:07;;;;;;;8.60;5.10;;;;;;;;;;5110625;28;20487;-62
2021/05/18 18:14:37;;;;;;;8.00;5.50;;;;;;;;;;5094931;28;20503;-55
2021/05/18 18:17:12;;;;;;;5.93;5.33;;;;;;;;;;5096463;28;20428;-63
2021/05/18 18:22:43;;;;;;;7.43;5.30;;;;;;;;;;5090487;28;20448;-59
2021/05/18 18:25:34;;;;;;;8.13;5.50;;;;;;;;;;5099482;28;20519;-57
2021/05/18 18:28:04;;;;;;;7.20;5.60;;;;;;;;;;5085784;28;20494;-58
2021/05/18 18:30:31;;;;;;;9.90;5.50;;;;;;;;;;5100552;28;20456;-61
2021/05/18 18:32:58;;;;;;;11.90;5.90;;;;;;;;;;5096093;28;20452;-60
2021/05/18 18:35:25;;;;;;;11.60;6.07;;;;;;;;;;5096888;28;20444;-58
2021/05/18 18:37:54;;;;;;;6.93;3.87;;;;;;;;;;5091249;28;20455;-61
2021/05/18 18:40:20;;;;;;;4.10;3.23;;;;;;;;;;5096224;28;20475;-59
2021/05/18 18:42:58;;;;;;;5.50;3.40;;;;;;;;;;5089591;28;20441;-60
2021/05/18 18:45:27;;;;;;;5.23;4.10;;;;;;;;;;5089951;28;20472;-59
2021/05/18 18:47:55;;;;;;;6.80;3.80;;;;;;;;;;5091168;28;20440;-56
2021/05/18 18:50:32;;;;;;;7.00;4.17;;;;;;;;;;5103038;28;20453;-57
2021/05/18 18:53:04;;;;;;;5.50;4.23;;;;;;;;;;5081432;28;20466;-57
2021/05/18 18:55:33;;;;;;;6.70;4.70;;;;;;;;;;5103528;28;20451;-59
2021/05/18 18:58:12;;;;;;;8.97;5.30;;;;;;;;;;5095130;28;20632;-52
2021/05/18 19:00:39;;;;;;;7.30;5.80;;;;;;;;;;5084377;28;20506;-61
2021/05/18 19:03:09;;;;;;;6.97;5.30;;;;;;;;;;5084882;28;20444;-58
2021/05/18 19:05:53;;;;;;;8.33;6.53;;;;;;;;;;5093696;28;20440;-60
2021/05/18 19:14:20;;;;;;;7.40;6.10;;;;;;;;;;5044558;28;20444;-57
2021/05/18 19:16:49;;;;;;;9.80;6.60;;;;;;;;;;5087775;28;20452;-57
2021/05/18 19:19:32;;;;;;;7.83;5.90;;;;;;;;;;5089550;28;20527;-53
2021/05/18 19:22:00;;;;;;;10.37;6.40;;;;;;;;;;5094912;28;20436;-60
2021/05/18 19:24:30;;;;;;;11.13;6.30;;;;;;;;;;5075732;28;20476;-56
2021/05/18 19:26:58;;;;;;;7.37;5.73;;;;;;;;;;5091447;28;20524;-61
2021/05/18 19:29:26;;;;;;;7.50;6.47;;;;;;;;;;5094821;28;20499;-61
2021/05/18 19:31:56;;;;;;;9.47;7.33;;;;;;;;;;5095123;28;20460;-63
2021/05/18 19:34:25;;;;;;;12.43;7.33;;;;;;;;;;5093129;28;20490;-55
2021/05/18 19:37:19;;;;;;;8.80;7.53;;;;;;;;;;5092848;28;20444;-60
2021/05/18 19:43:11;;;;;;;14.43;7.20;;;;;;;;;;5096153;28;20470;-55
2021/05/18 19:45:53;;;;;;;10.57;7.60;;;;;;;;;;5095379;28;20460;-61
2021/05/18 19:48:23;;;;;;;10.07;8.03;;;;;;;;;;5091644;28;20455;-58
2021/05/18 19:50:54;;;;;;;11.17;7.23;;;;;;;;;;5093728;28;20497;-58
2021/05/18 19:53:24;;;;;;;10.23;6.33;;;;;;;;;;5094987;28;20476;-61
2021/05/18 19:55:58;;;;;;;11.33;7.27;;;;;;;;;;5095218;28;20448;-60
2021/05/18 19:58:53;;;;;;;8.10;6.93;;;;;;;;;;5095828;28;20428;-62
2021/05/18 20:21:07;;;;;;;8.30;7.30;;;;;;;;;;5090562;28;20540;-61
2021/05/18 20:23:35;;;;;;;11.20;8.07;;;;;;;;;;5094501;28;20675;-60
2021/05/18 20:26:02;;;;;;;9.73;8.70;;;;;;;;;;5094453;28;20452;-57